sensor_id;sensor_type;location;lat;lon;timestamp;P1;durP1;ratioP1;P2;durP2;ratioP2
56399;SDS011;42298;53.638;9.876;2023-07-31T00:00:55;8.30;;;3.00;;
56399;SDS011;42298;53.638;9.876;2023-07-31T00:03:20;10.57;;;2.50;;
56399;SDS011;42298;53.638;9.876;2023-07-31T00:05:48;8.98;;;2.92;;
56399;SDS011;42298;53.638;9.876;2023-07-31T00:08:14;7.38;;;2.55;;
56399;SDS011;42298;53.638;9.876;2023-07-31T00:10:39;7.30;;;2.75;;
56399;SDS011;42298;53.638;9.876;2023-07-31T00:13:05;12.68;;;3.03;;
56399;SDS011;42298;53.638;9.876;2023-07-31T00:15:31;9.00;;;2.70;;
56399;SDS011;42298;53.638;9.876;2023-07-31T00:17:56;10.63;;;2.80;;
56399;SDS011;42298;53.638;9.876;2023-07-31T00:20:21;10.20;;;2.70;;
56399;SDS011;42298;53.638;9.876;2023-07-31T00:22:46;6.72;;;2.65;;
56399;SDS011;42298;53.638;9.876;2023-07-31T00:25:12;8.18;;;2.88;;
56399;SDS011;42298;53.638;9.876;2023-07-31T00:27:37;8.57;;;3.10;;
56399;SDS011;42298;53.638;9.876;2023-07-31T00:30:04;8.48;;;2.58;;
56399;SDS011;42298;53.638;9.876;2023-07-31T00:32:30;9.18;;;2.45;;
56399;SDS011;42298;53.638;9.876;2023-07-31T00:34:55;9.18;;;2.67;;
56399;SDS011;42298;53.638;9.876;2023-07-31T00:37:21;12.10;;;3.00;;
56399;SDS011;42298;53.638;9.876;2023-07-31T00:39:46;10.65;;;2.53;;
56399;SDS011;42298;53.638;9.876;2023-07-31T00:42:11;10.65;;;2.97;;
56399;SDS011;42298;53.638;9.876;2023-07-31T00:44:36;12.80;;;2.75;;
56399;SDS011;42298;53.638;9.876;2023-07-31T00:47:02;9.48;;;2.83;;
56399;SDS011;42298;53.638;9.876;2023-07-31T00:49:27;13.55;;;3.70;;
56399;SDS011;42298;53.638;9.876;2023-07-31T00:51:52;8.98;;;2.67;;
56399;SDS011;42298;53.638;9.876;2023-07-31T00:54:19;10.90;;;2.83;;
56399;SDS011;42298;53.638;9.876;2023-07-31T00:56:45;10.18;;;2.72;;
56399;SDS011;42298;53.638;9.876;2023-07-31T00:59:11;13.10;;;2.70;;
56399;SDS011;42298;53.638;9.876;2023-07-31T01:01:36;9.80;;;3.00;;
56399;SDS011;42298;53.638;9.876;2023-07-31T01:04:02;9.70;;;3.10;;
56399;SDS011;42298;53.638;9.876;2023-07-31T01:06:36;7.78;;;2.63;;
56399;SDS011;42298;53.638;9.876;2023-07-31T01:09:09;11.63;;;2.92;;
56399;SDS011;42298;53.638;9.876;2023-07-31T01:11:46;8.30;;;2.60;;
56399;SDS011;42298;53.638;9.876;2023-07-31T01:14:17;9.70;;;2.70;;
56399;SDS011;42298;53.638;9.876;2023-07-31T01:16:43;10.48;;;2.67;;
56399;SDS011;42298;53.638;9.876;2023-07-31T01:19:08;10.38;;;3.00;;
56399;SDS011;42298;53.638;9.876;2023-07-31T01:27:06;10.80;;;2.92;;
56399;SDS011;42298;53.638;9.876;2023-07-31T01:29:38;14.02;;;3.03;;
56399;SDS011;42298;53.638;9.876;2023-07-31T01:32:21;10.88;;;2.95;;
56399;SDS011;42298;53.638;9.876;2023-07-31T01:34:48;10.95;;;2.92;;
56399;SDS011;42298;53.638;9.876;2023-07-31T01:37:15;9.60;;;3.13;;
56399;SDS011;42298;53.638;9.876;2023-07-31T01:39:40;9.27;;;3.08;;
56399;SDS011;42298;53.638;9.876;2023-07-31T01:42:05;9.73;;;2.95;;
56399;SDS011;42298;53.638;9.876;2023-07-31T01:44:33;7.63;;;2.80;;
56399;SDS011;42298;53.638;9.876;2023-07-31T01:46:58;8.85;;;2.95;;
56399;SDS011;42298;53.638;9.876;2023-07-31T01:49:25;8.98;;;3.25;;
56399;SDS011;42298;53.638;9.876;2023-07-31T01:51:50;9.40;;;3.22;;
56399;SDS011;42298;53.638;9.876;2023-07-31T01:54:15;11.55;;;2.90;;
56399;SDS011;42298;53.638;9.876;2023-07-31T01:56:41;10.45;;;3.15;;
56399;SDS011;42298;53.638;9.876;2023-07-31T01:59:06;6.68;;;2.42;;
56399;SDS011;42298;53.638;9.876;2023-07-31T02:01:31;9.50;;;2.80;;
56399;SDS011;42298;53.638;9.876;2023-07-31T02:03:57;8.63;;;3.33;;
56399;SDS011;42298;53.638;9.876;2023-07-31T02:06:22;9.43;;;3.13;;
56399;SDS011;42298;53.638;9.876;2023-07-31T02:08:48;9.25;;;3.00;;
56399;SDS011;42298;53.638;9.876;2023-07-31T02:11:13;10.57;;;3.58;;
56399;SDS011;42298;53.638;9.876;2023-07-31T02:13:38;7.25;;;2.95;;
56399;SDS011;42298;53.638;9.876;2023-07-31T02:16:05;8.63;;;3.35;;
56399;SDS011;42298;53.638;9.876;2023-07-31T02:18:30;10.73;;;3.30;;
56399;SDS011;42298;53.638;9.876;2023-07-31T02:20:56;13.82;;;4.00;;
56399;SDS011;42298;53.638;9.876;2023-07-31T02:23:21;8.73;;;2.95;;
56399;SDS011;42298;53.638;9.876;2023-07-31T02:25:46;10.20;;;3.13;;
56399;SDS011;42298;53.638;9.876;2023-07-31T02:28:12;9.15;;;3.30;;
56399;SDS011;42298;53.638;9.876;2023-07-31T02:30:37;7.05;;;3.17;;
56399;SDS011;42298;53.638;9.876;2023-07-31T02:33:03;8.18;;;3.00;;
56399;SDS011;42298;53.638;9.876;2023-07-31T02:35:29;8.07;;;3.00;;
56399;SDS011;42298;53.638;9.876;2023-07-31T02:37:54;12.50;;;3.72;;
56399;SDS011;42298;53.638;9.876;2023-07-31T02:40:20;9.52;;;3.17;;
56399;SDS011;42298;53.638;9.876;2023-07-31T02:42:45;9.43;;;3.35;;
56399;SDS011;42298;53.638;9.876;2023-07-31T02:45:10;8.50;;;3.38;;
56399;SDS011;42298;53.638;9.876;2023-07-31T02:47:36;8.85;;;3.30;;
56399;SDS011;42298;53.638;9.876;2023-07-31T02:50:02;10.23;;;3.63;;
56399;SDS011;42298;53.638;9.876;2023-07-31T02:52:30;9.63;;;3.67;;
56399;SDS011;42298;53.638;9.876;2023-07-31T02:54:55;8.45;;;3.25;;
56399;SDS011;42298;53.638;9.876;2023-07-31T02:57:21;8.18;;;3.67;;
56399;SDS011;42298;53.638;9.876;2023-07-31T02:59:46;9.90;;;3.00;;
56399;SDS011;42298;53.638;9.876;2023-07-31T03:02:11;9.07;;;3.50;;
56399;SDS011;42298;53.638;9.876;2023-07-31T03:04:38;10.60;;;3.58;;
56399;SDS011;42298;53.638;9.876;2023-07-31T03:07:03;6.55;;;3.10;;
56399;SDS011;42298;53.638;9.876;2023-07-31T03:09:29;9.00;;;3.22;;
56399;SDS011;42298;53.638;9.876;2023-07-31T03:11:54;11.93;;;3.47;;
56399;SDS011;42298;53.638;9.876;2023-07-31T03:14:21;9.98;;;3.42;;
56399;SDS011;42298;53.638;9.876;2023-07-31T03:16:46;9.93;;;3.63;;
56399;SDS011;42298;53.638;9.876;2023-07-31T03:19:11;12.93;;;3.28;;
56399;SDS011;42298;53.638;9.876;2023-07-31T03:21:36;11.52;;;3.30;;
56399;SDS011;42298;53.638;9.876;2023-07-31T03:24:02;8.35;;;3.53;;
56399;SDS011;42298;53.638;9.876;2023-07-31T03:26:33;9.70;;;3.15;;
56399;SDS011;42298;53.638;9.876;2023-07-31T03:28:58;8.90;;;3.13;;
56399;SDS011;42298;53.638;9.876;2023-07-31T03:31:24;10.00;;;4.25;;
56399;SDS011;42298;53.638;9.876;2023-07-31T03:33:49;9.50;;;3.30;;
56399;SDS011;42298;53.638;9.876;2023-07-31T03:36:14;10.57;;;3.72;;
56399;SDS011;42298;53.638;9.876;2023-07-31T03:38:40;11.93;;;3.35;;
56399;SDS011;42298;53.638;9.876;2023-07-31T03:41:05;8.68;;;3.50;;
56399;SDS011;42298;53.638;9.876;2023-07-31T03:43:31;9.93;;;3.33;;
56399;SDS011;42298;53.638;9.876;2023-07-31T03:45:58;9.32;;;3.10;;
56399;SDS011;42298;53.638;9.876;2023-07-31T03:48:24;8.13;;;3.20;;
56399;SDS011;42298;53.638;9.876;2023-07-31T03:50:49;7.97;;;3.42;;
56399;SDS011;42298;53.638;9.876;2023-07-31T03:53:14;10.77;;;3.55;;
56399;SDS011;42298;53.638;9.876;2023-07-31T03:55:40;8.65;;;3.35;;
56399;SDS011;42298;53.638;9.876;2023-07-31T03:58:05;8.77;;;3.03;;
56399;SDS011;42298;53.638;9.876;2023-07-31T04:00:30;7.68;;;3.28;;
56399;SDS011;42298;53.638;9.876;2023-07-31T04:02:56;9.35;;;3.65;;
56399;SDS011;42298;53.638;9.876;2023-07-31T04:05:21;11.00;;;3.70;;
56399;SDS011;42298;53.638;9.876;2023-07-31T04:07:46;8.02;;;3.20;;
56399;SDS011;42298;53.638;9.876;2023-07-31T04:10:15;10.25;;;3.55;;
56399;SDS011;42298;53.638;9.876;2023-07-31T04:12:40;8.85;;;3.53;;
56399;SDS011;42298;53.638;9.876;2023-07-31T04:15:05;8.77;;;3.50;;
56399;SDS011;42298;53.638;9.876;2023-07-31T04:17:31;6.47;;;2.88;;
56399;SDS011;42298;53.638;9.876;2023-07-31T04:19:56;7.60;;;2.95;;
56399;SDS011;42298;53.638;9.876;2023-07-31T04:22:22;6.75;;;3.03;;
56399;SDS011;42298;53.638;9.876;2023-07-31T04:24:47;8.80;;;3.60;;
56399;SDS011;42298;53.638;9.876;2023-07-31T04:27:12;10.02;;;3.47;;
56399;SDS011;42298;53.638;9.876;2023-07-31T04:29:38;5.97;;;2.78;;
56399;SDS011;42298;53.638;9.876;2023-07-31T04:32:04;8.43;;;3.28;;
56399;SDS011;42298;53.638;9.876;2023-07-31T04:34:30;6.18;;;2.90;;
56399;SDS011;42298;53.638;9.876;2023-07-31T04:36:55;7.63;;;3.15;;
56399;SDS011;42298;53.638;9.876;2023-07-31T04:39:21;8.40;;;3.42;;
56399;SDS011;42298;53.638;9.876;2023-07-31T04:41:46;5.50;;;2.78;;
56399;SDS011;42298;53.638;9.876;2023-07-31T04:44:11;5.03;;;3.05;;
56399;SDS011;42298;53.638;9.876;2023-07-31T04:46:36;4.78;;;2.72;;
56399;SDS011;42298;53.638;9.876;2023-07-31T04:49:02;7.15;;;3.00;;
56399;SDS011;42298;53.638;9.876;2023-07-31T04:51:28;7.88;;;3.30;;
56399;SDS011;42298;53.638;9.876;2023-07-31T04:53:53;5.22;;;2.90;;
56399;SDS011;42298;53.638;9.876;2023-07-31T04:56:21;6.45;;;2.80;;
56399;SDS011;42298;53.638;9.876;2023-07-31T04:58:46;5.70;;;2.85;;
56399;SDS011;42298;53.638;9.876;2023-07-31T05:01:11;5.35;;;2.53;;
56399;SDS011;42298;53.638;9.876;2023-07-31T05:03:36;5.63;;;2.78;;
56399;SDS011;42298;53.638;9.876;2023-07-31T05:06:02;3.42;;;2.38;;
56399;SDS011;42298;53.638;9.876;2023-07-31T05:08:27;5.40;;;2.55;;
56399;SDS011;42298;53.638;9.876;2023-07-31T05:10:52;4.63;;;2.57;;
56399;SDS011;42298;53.638;9.876;2023-07-31T05:13:18;4.20;;;2.60;;
56399;SDS011;42298;53.638;9.876;2023-07-31T05:15:43;3.08;;;2.33;;
56399;SDS011;42298;53.638;9.876;2023-07-31T05:18:08;4.43;;;2.72;;
56399;SDS011;42298;53.638;9.876;2023-07-31T05:20:33;4.43;;;2.30;;
56399;SDS011;42298;53.638;9.876;2023-07-31T05:22:59;4.22;;;2.55;;
56399;SDS011;42298;53.638;9.876;2023-07-31T05:25:25;4.10;;;2.47;;
56399;SDS011;42298;53.638;9.876;2023-07-31T05:27:51;5.15;;;2.60;;
56399;SDS011;42298;53.638;9.876;2023-07-31T05:30:16;3.83;;;2.22;;
56399;SDS011;42298;53.638;9.876;2023-07-31T05:32:41;4.07;;;2.20;;
56399;SDS011;42298;53.638;9.876;2023-07-31T05:35:07;3.67;;;2.28;;
56399;SDS011;42298;53.638;9.876;2023-07-31T05:37:32;4.43;;;2.50;;
56399;SDS011;42298;53.638;9.876;2023-07-31T05:39:57;4.85;;;2.47;;
56399;SDS011;42298;53.638;9.876;2023-07-31T05:42:23;5.22;;;2.70;;
56399;SDS011;42298;53.638;9.876;2023-07-31T05:44:48;2.53;;;2.05;;
56399;SDS011;42298;53.638;9.876;2023-07-31T05:47:13;4.32;;;2.47;;
56399;SDS011;42298;53.638;9.876;2023-07-31T05:49:38;4.03;;;2.30;;
56399;SDS011;42298;53.638;9.876;2023-07-31T05:52:04;2.28;;;2.00;;
56399;SDS011;42298;53.638;9.876;2023-07-31T05:54:29;4.45;;;2.00;;
56399;SDS011;42298;53.638;9.876;2023-07-31T05:56:56;3.88;;;2.33;;
56399;SDS011;42298;53.638;9.876;2023-07-31T05:59:21;3.53;;;2.28;;
56399;SDS011;42298;53.638;9.876;2023-07-31T06:01:47;4.63;;;2.20;;
56399;SDS011;42298;53.638;9.876;2023-07-31T06:04:12;2.90;;;2.38;;
56399;SDS011;42298;53.638;9.876;2023-07-31T06:06:37;4.18;;;2.40;;
56399;SDS011;42298;53.638;9.876;2023-07-31T06:09:03;4.57;;;2.13;;
56399;SDS011;42298;53.638;9.876;2023-07-31T06:11:28;4.40;;;2.10;;
56399;SDS011;42298;53.638;9.876;2023-07-31T06:13:54;3.53;;;2.30;;
56399;SDS011;42298;53.638;9.876;2023-07-31T06:16:20;3.72;;;2.08;;
56399;SDS011;42298;53.638;9.876;2023-07-31T06:18:46;2.72;;;2.05;;
56399;SDS011;42298;53.638;9.876;2023-07-31T06:21:12;3.00;;;2.20;;
56399;SDS011;42298;53.638;9.876;2023-07-31T06:23:37;3.92;;;2.10;;
56399;SDS011;42298;53.638;9.876;2023-07-31T06:26:04;2.88;;;2.20;;
56399;SDS011;42298;53.638;9.876;2023-07-31T06:28:29;4.03;;;2.20;;
56399;SDS011;42298;53.638;9.876;2023-07-31T06:30:56;3.85;;;2.22;;
56399;SDS011;42298;53.638;9.876;2023-07-31T06:33:21;3.03;;;1.92;;
56399;SDS011;42298;53.638;9.876;2023-07-31T06:35:47;3.13;;;2.35;;
56399;SDS011;42298;53.638;9.876;2023-07-31T06:38:13;4.78;;;2.22;;
56399;SDS011;42298;53.638;9.876;2023-07-31T06:40:38;2.35;;;1.90;;
56399;SDS011;42298;53.638;9.876;2023-07-31T06:43:04;3.08;;;2.03;;
56399;SDS011;42298;53.638;9.876;2023-07-31T06:45:35;3.08;;;1.85;;
56399;SDS011;42298;53.638;9.876;2023-07-31T06:48:01;3.25;;;2.20;;
56399;SDS011;42298;53.638;9.876;2023-07-31T06:50:28;2.92;;;2.40;;
56399;SDS011;42298;53.638;9.876;2023-07-31T06:52:53;2.60;;;1.83;;
56399;SDS011;42298;53.638;9.876;2023-07-31T06:55:19;4.40;;;2.08;;
56399;SDS011;42298;53.638;9.876;2023-07-31T06:57:49;2.75;;;2.20;;
56399;SDS011;42298;53.638;9.876;2023-07-31T07:00:15;3.63;;;2.33;;
56399;SDS011;42298;53.638;9.876;2023-07-31T07:02:41;2.55;;;2.30;;
56399;SDS011;42298;53.638;9.876;2023-07-31T07:05:07;3.55;;;2.40;;
56399;SDS011;42298;53.638;9.876;2023-07-31T07:07:33;3.25;;;2.10;;
56399;SDS011;42298;53.638;9.876;2023-07-31T07:09:59;2.08;;;1.90;;
56399;SDS011;42298;53.638;9.876;2023-07-31T07:12:29;2.33;;;2.00;;
56399;SDS011;42298;53.638;9.876;2023-07-31T07:14:55;3.47;;;2.10;;
56399;SDS011;42298;53.638;9.876;2023-07-31T07:17:22;3.28;;;2.20;;
56399;SDS011;42298;53.638;9.876;2023-07-31T07:19:48;3.17;;;2.13;;
56399;SDS011;42298;53.638;9.876;2023-07-31T07:22:14;2.10;;;1.90;;
56399;SDS011;42298;53.638;9.876;2023-07-31T07:24:39;2.50;;;2.20;;
56399;SDS011;42298;53.638;9.876;2023-07-31T07:27:05;3.60;;;2.10;;
56399;SDS011;42298;53.638;9.876;2023-07-31T07:29:30;4.30;;;2.20;;
56399;SDS011;42298;53.638;9.876;2023-07-31T07:31:56;3.88;;;1.80;;
56399;SDS011;42298;53.638;9.876;2023-07-31T07:34:27;3.60;;;1.80;;
56399;SDS011;42298;53.638;9.876;2023-07-31T07:36:53;2.38;;;2.17;;
56399;SDS011;42298;53.638;9.876;2023-07-31T07:39:19;2.60;;;1.80;;
56399;SDS011;42298;53.638;9.876;2023-07-31T07:41:45;2.63;;;1.90;;
56399;SDS011;42298;53.638;9.876;2023-07-31T07:44:10;1.95;;;1.70;;
56399;SDS011;42298;53.638;9.876;2023-07-31T07:46:36;4.35;;;2.22;;
56399;SDS011;42298;53.638;9.876;2023-07-31T07:49:01;4.47;;;2.05;;
56399;SDS011;42298;53.638;9.876;2023-07-31T07:51:26;2.30;;;1.95;;
56399;SDS011;42298;53.638;9.876;2023-07-31T07:53:52;2.13;;;1.73;;
56399;SDS011;42298;53.638;9.876;2023-07-31T07:56:17;2.50;;;2.03;;
56399;SDS011;42298;53.638;9.876;2023-07-31T07:58:42;3.30;;;2.28;;
56399;SDS011;42298;53.638;9.876;2023-07-31T08:01:08;2.95;;;2.20;;
56399;SDS011;42298;53.638;9.876;2023-07-31T08:03:33;5.47;;;2.00;;
56399;SDS011;42298;53.638;9.876;2023-07-31T08:05:58;2.25;;;2.03;;
56399;SDS011;42298;53.638;9.876;2023-07-31T08:08:24;3.92;;;1.98;;
56399;SDS011;42298;53.638;9.876;2023-07-31T08:10:51;2.47;;;1.60;;
56399;SDS011;42298;53.638;9.876;2023-07-31T08:13:16;2.13;;;1.63;;
56399;SDS011;42298;53.638;9.876;2023-07-31T08:15:41;5.72;;;1.80;;
56399;SDS011;42298;53.638;9.876;2023-07-31T08:18:11;3.40;;;1.60;;
56399;SDS011;42298;53.638;9.876;2023-07-31T08:20:37;2.95;;;2.13;;
56399;SDS011;42298;53.638;9.876;2023-07-31T08:23:03;2.33;;;2.03;;
56399;SDS011;42298;53.638;9.876;2023-07-31T08:25:29;2.15;;;1.80;;
56399;SDS011;42298;53.638;9.876;2023-07-31T08:27:55;5.43;;;2.00;;
56399;SDS011;42298;53.638;9.876;2023-07-31T08:30:20;4.93;;;1.95;;
56399;SDS011;42298;53.638;9.876;2023-07-31T08:32:46;1.70;;;1.60;;
56399;SDS011;42298;53.638;9.876;2023-07-31T08:35:11;3.55;;;1.90;;
56399;SDS011;42298;53.638;9.876;2023-07-31T08:37:37;3.95;;;1.90;;
56399;SDS011;42298;53.638;9.876;2023-07-31T08:40:03;1.75;;;1.55;;
56399;SDS011;42298;53.638;9.876;2023-07-31T08:42:29;1.58;;;1.48;;
56399;SDS011;42298;53.638;9.876;2023-07-31T08:44:55;2.05;;;1.60;;
56399;SDS011;42298;53.638;9.876;2023-07-31T08:47:21;2.15;;;1.63;;
56399;SDS011;42298;53.638;9.876;2023-07-31T08:49:46;3.58;;;1.70;;
56399;SDS011;42298;53.638;9.876;2023-07-31T08:52:13;1.67;;;1.27;;
56399;SDS011;42298;53.638;9.876;2023-07-31T08:54:38;2.35;;;1.42;;
56399;SDS011;42298;53.638;9.876;2023-07-31T08:57:04;1.95;;;1.60;;
56399;SDS011;42298;53.638;9.876;2023-07-31T08:59:31;2.13;;;1.60;;
56399;SDS011;42298;53.638;9.876;2023-07-31T09:04:29;1.52;;;1.35;;
56399;SDS011;42298;53.638;9.876;2023-07-31T09:06:56;1.65;;;1.42;;
56399;SDS011;42298;53.638;9.876;2023-07-31T09:09:25;4.80;;;1.40;;
56399;SDS011;42298;53.638;9.876;2023-07-31T09:11:51;4.82;;;1.63;;
56399;SDS011;42298;53.638;9.876;2023-07-31T09:14:17;1.98;;;1.58;;
56399;SDS011;42298;53.638;9.876;2023-07-31T09:16:56;1.63;;;1.27;;
56399;SDS011;42298;53.638;9.876;2023-07-31T09:21:52;3.58;;;1.63;;
56399;SDS011;42298;53.638;9.876;2023-07-31T09:24:30;2.90;;;1.45;;
56399;SDS011;42298;53.638;9.876;2023-07-31T09:26:58;2.47;;;1.60;;
56399;SDS011;42298;53.638;9.876;2023-07-31T09:29:25;1.85;;;1.40;;
56399;SDS011;42298;53.638;9.876;2023-07-31T09:31:51;1.80;;;1.50;;
56399;SDS011;42298;53.638;9.876;2023-07-31T09:34:17;3.25;;;1.70;;
56399;SDS011;42298;53.638;9.876;2023-07-31T09:36:43;2.17;;;1.23;;
56399;SDS011;42298;53.638;9.876;2023-07-31T09:39:10;2.22;;;1.48;;
56399;SDS011;42298;53.638;9.876;2023-07-31T09:41:43;2.42;;;1.50;;
56399;SDS011;42298;53.638;9.876;2023-07-31T09:44:10;1.98;;;1.42;;
56399;SDS011;42298;53.638;9.876;2023-07-31T09:46:36;3.08;;;1.60;;
56399;SDS011;42298;53.638;9.876;2023-07-31T09:49:03;1.60;;;1.45;;
56399;SDS011;42298;53.638;9.876;2023-07-31T09:51:36;2.78;;;1.75;;
56399;SDS011;42298;53.638;9.876;2023-07-31T09:54:03;3.33;;;1.80;;
56399;SDS011;42298;53.638;9.876;2023-07-31T09:56:34;2.08;;;1.70;;
56399;SDS011;42298;53.638;9.876;2023-07-31T09:59:01;2.17;;;1.35;;
56399;SDS011;42298;53.638;9.876;2023-07-31T10:01:29;2.08;;;1.45;;
56399;SDS011;42298;53.638;9.876;2023-07-31T10:03:54;1.98;;;1.60;;
56399;SDS011;42298;53.638;9.876;2023-07-31T10:06:20;2.40;;;1.50;;
56399;SDS011;42298;53.638;9.876;2023-07-31T10:08:47;2.72;;;1.40;;
56399;SDS011;42298;53.638;9.876;2023-07-31T10:11:16;3.00;;;1.38;;
56399;SDS011;42298;53.638;9.876;2023-07-31T10:13:42;2.60;;;1.73;;
56399;SDS011;42298;53.638;9.876;2023-07-31T10:16:08;2.22;;;1.45;;
56399;SDS011;42298;53.638;9.876;2023-07-31T10:18:34;2.58;;;1.20;;
56399;SDS011;42298;53.638;9.876;2023-07-31T10:21:00;2.38;;;1.60;;
56399;SDS011;42298;53.638;9.876;2023-07-31T10:23:29;2.92;;;1.42;;
56399;SDS011;42298;53.638;9.876;2023-07-31T10:25:56;2.45;;;1.30;;
56399;SDS011;42298;53.638;9.876;2023-07-31T10:28:23;3.45;;;1.70;;
56399;SDS011;42298;53.638;9.876;2023-07-31T10:30:52;3.08;;;1.25;;
56399;SDS011;42298;53.638;9.876;2023-07-31T10:33:20;2.15;;;1.42;;
56399;SDS011;42298;53.638;9.876;2023-07-31T10:35:47;2.05;;;1.33;;
56399;SDS011;42298;53.638;9.876;2023-07-31T10:38:15;1.52;;;1.30;;
56399;SDS011;42298;53.638;9.876;2023-07-31T10:40:41;0.90;;;0.85;;
56399;SDS011;42298;53.638;9.876;2023-07-31T10:43:10;0.75;;;0.75;;
56399;SDS011;42298;53.638;9.876;2023-07-31T10:45:50;0.88;;;0.88;;
56399;SDS011;42298;53.638;9.876;2023-07-31T10:48:15;1.53;;;0.90;;
56399;SDS011;42298;53.638;9.876;2023-07-31T10:50:48;1.08;;;0.70;;
56399;SDS011;42298;53.638;9.876;2023-07-31T10:55:49;1.05;;;0.80;;
56399;SDS011;42298;53.638;9.876;2023-07-31T10:58:18;0.93;;;0.93;;
56399;SDS011;42298;53.638;9.876;2023-07-31T11:00:45;1.70;;;0.75;;
56399;SDS011;42298;53.638;9.876;2023-07-31T11:03:18;1.67;;;1.10;;
56399;SDS011;42298;53.638;9.876;2023-07-31T11:05:48;0.77;;;0.68;;
56399;SDS011;42298;53.638;9.876;2023-07-31T11:08:22;0.95;;;0.75;;
56399;SDS011;42298;53.638;9.876;2023-07-31T11:16:17;1.13;;;0.98;;
56399;SDS011;42298;53.638;9.876;2023-07-31T11:18:45;2.88;;;1.25;;
56399;SDS011;42298;53.638;9.876;2023-07-31T11:21:13;1.40;;;1.00;;
56399;SDS011;42298;53.638;9.876;2023-07-31T11:23:39;2.33;;;1.25;;
56399;SDS011;42298;53.638;9.876;2023-07-31T11:26:06;2.05;;;1.05;;
56399;SDS011;42298;53.638;9.876;2023-07-31T11:28:32;1.90;;;1.13;;
56399;SDS011;42298;53.638;9.876;2023-07-31T11:30:59;2.28;;;1.15;;
56399;SDS011;42298;53.638;9.876;2023-07-31T11:33:25;1.13;;;1.00;;
56399;SDS011;42298;53.638;9.876;2023-07-31T11:35:51;1.70;;;1.20;;
56399;SDS011;42298;53.638;9.876;2023-07-31T11:38:37;1.55;;;1.08;;
56399;SDS011;42298;53.638;9.876;2023-07-31T11:41:02;1.42;;;1.20;;
56399;SDS011;42298;53.638;9.876;2023-07-31T11:43:28;0.80;;;0.80;;
56399;SDS011;42298;53.638;9.876;2023-07-31T11:46:01;2.63;;;1.02;;
56399;SDS011;42298;53.638;9.876;2023-07-31T11:48:32;1.88;;;1.58;;
56399;SDS011;42298;53.638;9.876;2023-07-31T11:51:02;5.18;;;1.77;;
56399;SDS011;42298;53.638;9.876;2023-07-31T11:53:40;2.13;;;1.33;;
56399;SDS011;42298;53.638;9.876;2023-07-31T11:56:08;1.02;;;0.90;;
56399;SDS011;42298;53.638;9.876;2023-07-31T11:58:36;2.67;;;1.30;;
56399;SDS011;42298;53.638;9.876;2023-07-31T12:01:03;1.20;;;1.02;;
56399;SDS011;42298;53.638;9.876;2023-07-31T12:03:29;1.60;;;1.27;;
56399;SDS011;42298;53.638;9.876;2023-07-31T12:05:56;1.55;;;1.02;;
56399;SDS011;42298;53.638;9.876;2023-07-31T12:08:22;1.42;;;1.10;;
56399;SDS011;42298;53.638;9.876;2023-07-31T12:10:52;1.52;;;1.23;;
56399;SDS011;42298;53.638;9.876;2023-07-31T12:13:22;2.85;;;1.50;;
56399;SDS011;42298;53.638;9.876;2023-07-31T12:15:53;2.33;;;1.30;;
56399;SDS011;42298;53.638;9.876;2023-07-31T12:18:20;1.60;;;1.15;;
56399;SDS011;42298;53.638;9.876;2023-07-31T12:20:46;1.48;;;1.27;;
56399;SDS011;42298;53.638;9.876;2023-07-31T12:23:14;1.58;;;1.30;;
56399;SDS011;42298;53.638;9.876;2023-07-31T12:25:47;1.95;;;1.42;;
56399;SDS011;42298;53.638;9.876;2023-07-31T12:28:13;2.50;;;1.60;;
56399;SDS011;42298;53.638;9.876;2023-07-31T12:30:39;1.20;;;1.10;;
56399;SDS011;42298;53.638;9.876;2023-07-31T12:33:12;1.33;;;1.10;;
56399;SDS011;42298;53.638;9.876;2023-07-31T12:35:44;0.93;;;0.90;;
56399;SDS011;42298;53.638;9.876;2023-07-31T12:38:11;1.38;;;1.15;;
56399;SDS011;42298;53.638;9.876;2023-07-31T12:40:38;2.15;;;1.30;;
56399;SDS011;42298;53.638;9.876;2023-07-31T12:43:04;1.27;;;0.90;;
56399;SDS011;42298;53.638;9.876;2023-07-31T12:45:30;1.10;;;1.00;;
56399;SDS011;42298;53.638;9.876;2023-07-31T12:47:56;0.90;;;0.90;;
56399;SDS011;42298;53.638;9.876;2023-07-31T12:50:23;1.10;;;1.00;;
56399;SDS011;42298;53.638;9.876;2023-07-31T12:52:48;2.90;;;1.30;;
56399;SDS011;42298;53.638;9.876;2023-07-31T12:55:14;1.10;;;1.00;;
56399;SDS011;42298;53.638;9.876;2023-07-31T12:57:39;1.55;;;1.00;;
56399;SDS011;42298;53.638;9.876;2023-07-31T13:00:06;2.08;;;1.10;;
56399;SDS011;42298;53.638;9.876;2023-07-31T13:02:32;2.33;;;1.10;;
56399;SDS011;42298;53.638;9.876;2023-07-31T13:04:57;1.10;;;1.00;;
56399;SDS011;42298;53.638;9.876;2023-07-31T13:07:22;2.58;;;1.25;;
56399;SDS011;42298;53.638;9.876;2023-07-31T13:09:48;4.90;;;2.33;;
56399;SDS011;42298;53.638;9.876;2023-07-31T13:12:13;1.30;;;1.20;;
56399;SDS011;42298;53.638;9.876;2023-07-31T13:14:38;1.88;;;1.20;;
56399;SDS011;42298;53.638;9.876;2023-07-31T13:17:04;1.35;;;1.10;;
56399;SDS011;42298;53.638;9.876;2023-07-31T13:19:29;3.55;;;1.50;;
56399;SDS011;42298;53.638;9.876;2023-07-31T13:21:57;1.10;;;0.95;;
56399;SDS011;42298;53.638;9.876;2023-07-31T13:24:42;3.75;;;1.23;;
56399;SDS011;42298;53.638;9.876;2023-07-31T13:27:07;1.23;;;1.00;;
56399;SDS011;42298;53.638;9.876;2023-07-31T13:29:32;1.52;;;1.20;;
56399;SDS011;42298;53.638;9.876;2023-07-31T13:31:57;1.55;;;1.13;;
56399;SDS011;42298;53.638;9.876;2023-07-31T13:34:23;1.20;;;1.10;;
56399;SDS011;42298;53.638;9.876;2023-07-31T13:36:48;2.63;;;2.10;;
56399;SDS011;42298;53.638;9.876;2023-07-31T13:39:13;2.35;;;1.80;;
56399;SDS011;42298;53.638;9.876;2023-07-31T13:41:39;1.23;;;1.00;;
56399;SDS011;42298;53.638;9.876;2023-07-31T13:44:04;1.50;;;0.90;;
56399;SDS011;42298;53.638;9.876;2023-07-31T13:46:30;1.13;;;1.00;;
56399;SDS011;42298;53.638;9.876;2023-07-31T13:48:55;1.63;;;1.00;;
56399;SDS011;42298;53.638;9.876;2023-07-31T13:51:21;1.40;;;0.93;;
56399;SDS011;42298;53.638;9.876;2023-07-31T13:53:46;0.77;;;0.77;;
56399;SDS011;42298;53.638;9.876;2023-07-31T13:56:12;2.20;;;0.95;;
56399;SDS011;42298;53.638;9.876;2023-07-31T13:58:38;1.05;;;0.93;;
56399;SDS011;42298;53.638;9.876;2023-07-31T14:01:03;1.00;;;1.00;;
56399;SDS011;42298;53.638;9.876;2023-07-31T14:03:29;0.82;;;0.82;;
56399;SDS011;42298;53.638;9.876;2023-07-31T14:05:54;2.55;;;1.08;;
56399;SDS011;42298;53.638;9.876;2023-07-31T14:08:20;1.08;;;1.00;;
56399;SDS011;42298;53.638;9.876;2023-07-31T14:10:46;1.90;;;1.10;;
56399;SDS011;42298;53.638;9.876;2023-07-31T14:13:11;1.33;;;0.88;;
56399;SDS011;42298;53.638;9.876;2023-07-31T14:15:36;1.33;;;1.23;;
56399;SDS011;42298;53.638;9.876;2023-07-31T14:18:02;1.35;;;1.25;;
56399;SDS011;42298;53.638;9.876;2023-07-31T14:20:28;2.50;;;1.88;;
56399;SDS011;42298;53.638;9.876;2023-07-31T14:22:55;1.25;;;1.00;;
56399;SDS011;42298;53.638;9.876;2023-07-31T14:25:20;3.15;;;0.90;;
56399;SDS011;42298;53.638;9.876;2023-07-31T14:27:46;1.70;;;1.08;;
56399;SDS011;42298;53.638;9.876;2023-07-31T14:30:11;0.90;;;0.90;;
56399;SDS011;42298;53.638;9.876;2023-07-31T14:32:36;1.80;;;0.95;;
56399;SDS011;42298;53.638;9.876;2023-07-31T14:35:02;2.38;;;1.10;;
56399;SDS011;42298;53.638;9.876;2023-07-31T14:37:36;0.70;;;0.70;;
56399;SDS011;42298;53.638;9.876;2023-07-31T14:40:06;1.33;;;0.85;;
56399;SDS011;42298;53.638;9.876;2023-07-31T14:42:38;2.00;;;1.00;;
56399;SDS011;42298;53.638;9.876;2023-07-31T14:45:04;2.95;;;1.33;;
56399;SDS011;42298;53.638;9.876;2023-07-31T14:47:32;1.15;;;0.80;;
56399;SDS011;42298;53.638;9.876;2023-07-31T14:49:58;1.25;;;0.85;;
56399;SDS011;42298;53.638;9.876;2023-07-31T14:52:24;0.90;;;0.90;;
56399;SDS011;42298;53.638;9.876;2023-07-31T14:54:49;1.08;;;0.73;;
56399;SDS011;42298;53.638;9.876;2023-07-31T14:57:15;1.05;;;1.05;;
56399;SDS011;42298;53.638;9.876;2023-07-31T14:59:40;1.42;;;1.10;;